createdAt,value
2023-05-13T00:02:27.504Z,7.80
2023-05-13T00:07:29.214Z,6.40
2023-05-13T00:12:31.231Z,7.70
2023-05-13T00:17:32.928Z,9.90
2023-05-13T00:22:34.668Z,7.70
2023-05-13T00:27:36.402Z,8.90
2023-05-13T00:32:38.063Z,8.90
2023-05-13T00:37:39.835Z,25.40
2023-05-13T00:42:41.639Z,19.30
2023-05-13T00:47:44.108Z,13.80
2023-05-13T00:52:47.819Z,11.80
2023-05-13T00:57:49.650Z,11.50
2023-05-13T01:03:09.923Z,11.50
2023-05-13T01:08:27.014Z,14.00
2023-05-13T01:13:33.179Z,6.60
2023-05-13T01:18:38.111Z,5.70
2023-05-13T01:23:39.891Z,7.00
2023-05-13T01:28:41.929Z,6.80
2023-05-13T01:33:44.476Z,11.30
2023-05-13T01:38:48.669Z,8.10
2023-05-13T01:43:50.944Z,18.80
2023-05-13T01:48:52.683Z,15.50
2023-05-13T01:53:55.276Z,9.40
2023-05-13T01:58:58.126Z,8.30
2023-05-13T02:04:00.279Z,7.20
2023-05-13T02:09:02.153Z,8.20
2023-05-13T02:14:04.247Z,7.30
2023-05-13T02:19:06.973Z,6.80
2023-05-13T02:24:09.160Z,5.90
2023-05-13T02:29:11.029Z,5.50
2023-05-13T02:34:12.882Z,7.30
2023-05-13T02:39:14.594Z,7.20
2023-05-13T02:44:16.604Z,7.20
2023-05-13T02:49:19.367Z,8.60
2023-05-13T02:54:21.328Z,7.20
2023-05-13T02:59:23.856Z,8.50
2023-05-13T03:04:25.723Z,7.90
2023-05-13T03:09:27.386Z,7.70
2023-05-13T03:14:29.186Z,7.40
2023-05-13T03:19:31.818Z,7.00
2023-05-13T03:24:34.036Z,8.00
2023-05-13T03:29:36.819Z,7.40
2023-05-13T03:34:38.997Z,7.60
2023-05-13T03:39:40.799Z,8.40
2023-05-13T03:44:42.458Z,9.10
2023-05-13T03:49:48.040Z,8.40
2023-05-13T03:54:49.764Z,9.00
2023-05-13T03:59:51.568Z,8.20
2023-05-13T04:07:12.610Z,8.50
2023-05-13T04:12:15.750Z,8.40
2023-05-13T04:17:17.578Z,8.10
2023-05-13T04:22:19.523Z,8.00
2023-05-13T04:27:21.162Z,8.00
2023-05-13T04:32:23.083Z,7.50
2023-05-13T04:37:27.463Z,7.40
2023-05-13T04:42:32.744Z,7.30
2023-05-13T04:47:37.993Z,8.30
2023-05-13T04:52:42.849Z,7.60
2023-05-13T04:57:45.671Z,8.40
2023-05-13T05:02:47.528Z,10.40
2023-05-13T05:07:49.388Z,9.80
2023-05-13T05:12:51.944Z,9.20
2023-05-13T05:17:54.000Z,9.50
2023-05-13T05:22:55.896Z,9.30
2023-05-13T05:27:59.869Z,11.20
2023-05-13T05:33:02.500Z,10.30
2023-05-13T05:38:05.225Z,9.50
2023-05-13T05:43:08.084Z,10.00
2023-05-13T05:48:10.637Z,9.50
2023-05-13T05:53:12.680Z,9.60
2023-05-13T05:58:16.369Z,10.70
2023-05-13T06:03:18.839Z,12.40
2023-05-13T06:08:20.831Z,10.90
2023-05-13T06:13:22.878Z,11.00
2023-05-13T06:18:26.191Z,10.00
2023-05-13T06:23:28.954Z,10.70
2023-05-13T06:28:30.798Z,10.40
2023-05-13T06:33:32.579Z,9.30
2023-05-13T06:38:34.868Z,8.10
2023-05-13T06:43:38.771Z,8.10
2023-05-13T06:49:02.962Z,7.50
2023-05-13T06:54:04.915Z,7.40
2023-05-13T06:59:06.619Z,7.50
2023-05-13T07:04:08.352Z,11.90
2023-05-13T07:09:10.116Z,7.50
2023-05-13T07:14:11.791Z,6.60
2023-05-13T07:19:13.529Z,5.10
2023-05-13T07:24:15.334Z,5.00
2023-05-13T07:29:16.949Z,4.50
2023-05-13T07:34:19.049Z,4.20
2023-05-13T07:39:20.718Z,3.80
2023-05-13T07:44:22.412Z,3.00
2023-05-13T07:49:24.070Z,3.70
2023-05-13T07:54:25.786Z,3.00
2023-05-13T07:59:27.706Z,2.30
2023-05-13T08:04:29.451Z,2.80
2023-05-13T08:09:31.147Z,2.30
2023-05-13T08:14:32.851Z,2.10
2023-05-13T08:19:36.248Z,3.00
2023-05-13T08:24:40.514Z,2.80
2023-05-13T08:29:42.148Z,2.30
2023-05-13T08:34:43.908Z,1.90
2023-05-13T08:39:45.947Z,2.40
2023-05-13T08:44:49.116Z,2.30
2023-05-13T08:49:52.183Z,2.80
2023-05-13T08:54:54.525Z,3.30
2023-05-13T08:59:56.206Z,2.60
2023-05-13T09:05:02.820Z,2.50
2023-05-13T09:10:06.185Z,2.50
2023-05-13T09:15:12.887Z,2.20
2023-05-13T09:20:17.280Z,2.50
2023-05-13T09:25:21.689Z,2.00
2023-05-13T09:30:28.227Z,2.40
2023-05-13T09:35:31.562Z,3.10
2023-05-13T09:40:33.273Z,2.40
2023-05-13T09:45:36.019Z,2.10
2023-05-13T09:50:48.334Z,2.10
2023-05-13T09:55:56.315Z,2.90
2023-05-13T10:00:58.594Z,2.20
2023-05-13T10:06:03.394Z,2.00
2023-05-13T10:11:07.048Z,2.30
2023-05-13T10:16:09.482Z,1.80
2023-05-13T10:21:12.748Z,2.20
2023-05-13T10:26:14.737Z,1.70
2023-05-13T10:31:17.653Z,2.10
2023-05-13T10:36:28.152Z,3.90
2023-05-13T10:42:14.856Z,3.30
2023-05-13T10:47:17.021Z,1.90
2023-05-13T10:52:19.457Z,1.80
2023-05-13T10:57:29.453Z,2.90
2023-05-13T11:02:31.815Z,2.20
2023-05-13T11:07:38.237Z,2.10
2023-05-13T11:12:39.963Z,2.20
2023-05-13T11:17:45.874Z,2.10
2023-05-13T11:22:47.621Z,1.90
2023-05-13T11:27:49.293Z,1.70
2023-05-13T11:32:51.517Z,1.70
2023-05-13T11:37:59.875Z,1.60
2023-05-13T11:43:02.308Z,1.90
2023-05-13T11:48:23.987Z,1.80
2023-05-13T11:53:25.718Z,1.80
2023-05-13T11:58:27.512Z,1.50
2023-05-13T12:03:29.194Z,2.10
2023-05-13T12:08:31.688Z,2.20
2023-05-13T12:13:33.504Z,2.10
2023-05-13T12:18:35.427Z,1.80
2023-05-13T12:23:43.222Z,1.90
2023-05-13T12:28:44.911Z,1.70
2023-05-13T12:33:49.308Z,1.70
2023-05-13T12:39:10.923Z,2.60
2023-05-13T12:44:16.167Z,2.10
2023-05-13T12:49:18.001Z,2.50
2023-05-13T12:54:19.694Z,1.80
2023-05-13T12:59:21.369Z,1.70
2023-05-13T13:04:23.359Z,2.20
2023-05-13T13:09:25.101Z,2.40
2023-05-13T13:14:26.874Z,2.00
2023-05-13T13:19:28.754Z,2.30
2023-05-13T13:24:30.550Z,2.20
2023-05-13T13:29:32.387Z,2.30
2023-05-13T13:34:34.088Z,2.10
2023-05-13T13:39:36.133Z,2.00
2023-05-13T13:44:39.427Z,2.30
2023-05-13T13:49:41.188Z,2.60
2023-05-13T13:54:42.924Z,2.30
2023-05-13T13:59:44.567Z,4.60
2023-05-13T14:04:46.468Z,3.70
2023-05-13T14:09:49.851Z,2.80
2023-05-13T14:14:51.502Z,2.20
2023-05-13T14:19:55.474Z,2.90
2023-05-13T14:24:58.702Z,2.60
2023-05-13T14:30:00.415Z,2.80
2023-05-13T14:35:02.184Z,3.00
2023-05-13T14:40:04.858Z,2.90
2023-05-13T14:45:07.197Z,3.30
2023-05-13T14:50:09.091Z,3.40
2023-05-13T14:55:11.059Z,2.50
2023-05-13T15:00:13.280Z,2.70
2023-05-13T15:05:15.043Z,2.20
2023-05-13T15:10:16.859Z,2.10
2023-05-13T15:15:18.760Z,2.50
2023-05-13T15:20:20.662Z,2.00
2023-05-13T15:25:22.594Z,2.50
2023-05-13T15:30:24.513Z,2.40
2023-05-13T15:35:26.486Z,2.30
2023-05-13T15:40:28.173Z,2.60
2023-05-13T15:45:30.064Z,2.50
2023-05-13T15:50:31.943Z,2.50
2023-05-13T15:55:34.093Z,2.50
2023-05-13T16:00:35.850Z,2.30
2023-05-13T16:05:38.644Z,2.70
2023-05-13T16:10:40.330Z,2.50
2023-05-13T16:15:42.052Z,2.20
2023-05-13T16:20:44.316Z,3.10
2023-05-13T16:25:55.756Z,2.60
2023-05-13T16:30:58.645Z,2.70
2023-05-13T16:36:00.650Z,2.90
2023-05-13T16:41:02.451Z,4.60
2023-05-13T16:46:04.262Z,3.20
2023-05-13T16:51:06.349Z,3.90
2023-05-13T16:56:08.211Z,4.80
2023-05-13T17:01:10.027Z,4.30
2023-05-13T17:06:12.572Z,3.90
2023-05-13T17:11:17.602Z,3.60
2023-05-13T17:16:19.352Z,3.00
2023-05-13T17:21:21.220Z,3.20
2023-05-13T17:26:22.914Z,2.30
2023-05-13T17:31:25.796Z,2.60
2023-05-13T17:36:27.740Z,2.40
2023-05-13T17:41:29.429Z,2.40
2023-05-13T17:46:31.104Z,4.30
2023-05-13T17:51:32.770Z,7.40
2023-05-13T17:56:34.418Z,5.00
2023-05-13T18:01:36.269Z,3.70
2023-05-13T18:06:38.007Z,3.10
2023-05-13T18:11:39.788Z,3.30
2023-05-13T18:16:41.569Z,3.30
2023-05-13T18:21:43.523Z,4.00
2023-05-13T18:26:45.156Z,5.50
2023-05-13T18:31:46.816Z,6.20
2023-05-13T18:36:51.933Z,9.20
2023-05-13T18:41:53.794Z,6.20
2023-05-13T18:46:55.443Z,5.60
2023-05-13T18:51:57.172Z,13.10
2023-05-13T18:56:59.014Z,9.70
2023-05-13T19:02:01.153Z,11.60
2023-05-13T19:07:03.051Z,9.70
2023-05-13T19:12:05.488Z,13.50
2023-05-13T19:17:07.309Z,14.20
2023-05-13T19:22:09.013Z,8.50
2023-05-13T19:27:11.187Z,9.00
2023-05-13T19:32:12.924Z,10.70
2023-05-13T19:37:14.665Z,14.20
2023-05-13T19:42:16.530Z,10.80
2023-05-13T19:47:18.284Z,12.50
2023-05-13T19:52:20.013Z,14.20
2023-05-13T19:57:21.879Z,13.80
2023-05-13T20:02:24.893Z,12.20
2023-05-13T20:07:26.769Z,15.90
2023-05-13T20:12:28.514Z,15.40
2023-05-13T20:17:30.369Z,12.40
2023-05-13T20:22:32.307Z,11.80
2023-05-13T20:27:34.816Z,12.80
2023-05-13T20:32:36.712Z,11.50
2023-05-13T20:37:38.400Z,11.60
2023-05-13T20:42:40.158Z,11.80
2023-05-13T20:47:41.833Z,11.60
2023-05-13T20:52:43.472Z,10.70
2023-05-13T20:57:46.722Z,10.20
2023-05-13T21:02:50.286Z,10.60
2023-05-13T21:07:52.590Z,10.70
2023-05-13T21:12:57.751Z,11.10
2023-05-13T21:17:59.462Z,12.70
2023-05-13T21:23:01.416Z,16.10
2023-05-13T21:28:03.951Z,17.50
2023-05-13T21:33:07.819Z,18.00
2023-05-13T21:38:11.985Z,14.90
2023-05-13T21:43:15.384Z,11.40
2023-05-13T21:48:37.130Z,9.50
2023-05-13T21:53:38.826Z,9.70
2023-05-13T21:58:40.714Z,9.00
2023-05-13T22:03:42.376Z,10.10
2023-05-13T22:08:44.257Z,9.30
2023-05-13T22:13:46.505Z,9.20
2023-05-13T22:18:50.119Z,9.50
2023-05-13T22:23:53.822Z,9.60
2023-05-13T22:28:55.752Z,10.40
2023-05-13T22:33:57.443Z,10.40
2023-05-13T22:38:59.118Z,9.30
2023-05-13T22:44:00.831Z,11.30
2023-05-13T22:49:02.645Z,11.90
2023-05-13T22:54:04.336Z,13.50
2023-05-13T22:59:06.313Z,16.90
2023-05-13T23:04:08.056Z,15.20
2023-05-13T23:09:10.298Z,15.00
2023-05-13T23:14:18.189Z,14.60
2023-05-13T23:19:19.862Z,14.80
2023-05-13T23:24:21.612Z,13.70
2023-05-13T23:29:27.469Z,13.30
2023-05-13T23:34:29.175Z,13.60
2023-05-13T23:39:33.854Z,13.40
2023-05-13T23:44:35.587Z,13.10
2023-05-13T23:50:03.219Z,11.30
2023-05-13T23:55:05.760Z,12.80
